sensor_id;sensor_type;location;lat;lon;timestamp;pressure;altitude;pressure_sealevel;temperature;humidity
68654;BME280;55636;51.108;13.622;2023-06-05T00:00:25;100782.16;;;13.34;45.66
68654;BME280;55636;51.108;13.622;2023-06-05T00:01:27;100782.69;;;13.31;45.78
68654;BME280;55636;51.108;13.622;2023-06-05T00:02:29;100784.91;;;13.29;45.67
68654;BME280;55636;51.108;13.622;2023-06-05T00:03:32;100779.63;;;13.27;45.92
68654;BME280;55636;51.108;13.622;2023-06-05T00:04:35;100781.84;;;13.25;46.00
68654;BME280;55636;51.108;13.622;2023-06-05T00:05:39;100784.31;;;13.22;46.24
68654;BME280;55636;51.108;13.622;2023-06-05T00:06:41;100786.78;;;13.18;46.14
68654;BME280;55636;51.108;13.622;2023-06-05T00:07:44;100784.00;;;13.18;46.31
68654;BME280;55636;51.108;13.622;2023-06-05T00:08:47;100781.78;;;13.15;46.34
68654;BME280;55636;51.108;13.622;2023-06-05T00:09:49;100793.13;;;13.13;46.18
68654;BME280;55636;51.108;13.622;2023-06-05T00:10:52;100786.16;;;13.11;46.24
68654;BME280;55636;51.108;13.622;2023-06-05T00:11:54;100788.13;;;13.10;46.07
68654;BME280;55636;51.108;13.622;2023-06-05T00:12:56;100787.00;;;13.06;45.78
68654;BME280;55636;51.108;13.622;2023-06-05T00:13:59;100784.50;;;13.05;45.64
68654;BME280;55636;51.108;13.622;2023-06-05T00:15:01;100785.84;;;13.02;45.48
68654;BME280;55636;51.108;13.622;2023-06-05T00:16:04;100785.00;;;13.01;45.59
68654;BME280;55636;51.108;13.622;2023-06-05T00:17:06;100784.44;;;12.99;45.44
68654;BME280;55636;51.108;13.622;2023-06-05T00:18:09;100773.88;;;12.96;45.17
68654;BME280;55636;51.108;13.622;2023-06-05T00:19:11;100783.31;;;12.95;45.03
68654;BME280;55636;51.108;13.622;2023-06-05T00:20:14;100775.50;;;12.92;44.96
68654;BME280;55636;51.108;13.622;2023-06-05T00:21:16;100781.59;;;12.89;45.15
68654;BME280;55636;51.108;13.622;2023-06-05T00:22:19;100779.09;;;12.88;44.92
68654;BME280;55636;51.108;13.622;2023-06-05T00:23:21;100779.38;;;12.86;44.90
68654;BME280;55636;51.108;13.622;2023-06-05T00:24:24;100785.16;;;12.84;44.59
68654;BME280;55636;51.108;13.622;2023-06-05T00:25:26;100775.44;;;12.82;44.72
68654;BME280;55636;51.108;13.622;2023-06-05T00:26:29;100783.19;;;12.80;44.71
68654;BME280;55636;51.108;13.622;2023-06-05T00:27:31;100781.78;;;12.77;44.53
68654;BME280;55636;51.108;13.622;2023-06-05T00:28:33;100778.44;;;12.75;44.40
68654;BME280;55636;51.108;13.622;2023-06-05T00:29:36;100786.19;;;12.73;44.30
68654;BME280;55636;51.108;13.622;2023-06-05T00:30:38;100792.84;;;12.72;44.27
68654;BME280;55636;51.108;13.622;2023-06-05T00:31:42;100782.25;;;12.69;44.33
68654;BME280;55636;51.108;13.622;2023-06-05T00:32:46;100780.84;;;12.66;44.26
68654;BME280;55636;51.108;13.622;2023-06-05T00:33:49;100778.63;;;12.63;43.87
68654;BME280;55636;51.108;13.622;2023-06-05T00:34:54;100781.66;;;12.62;43.81
68654;BME280;55636;51.108;13.622;2023-06-05T00:35:56;100783.81;;;12.60;43.91
68654;BME280;55636;51.108;13.622;2023-06-05T00:36:59;100775.78;;;12.58;43.93
68654;BME280;55636;51.108;13.622;2023-06-05T00:38:02;100783.53;;;12.56;43.83
68654;BME280;55636;51.108;13.622;2023-06-05T00:39:04;100774.63;;;12.54;43.99
68654;BME280;55636;51.108;13.622;2023-06-05T00:40:07;100787.06;;;12.51;43.96
68654;BME280;55636;51.108;13.622;2023-06-05T00:41:09;100785.41;;;12.50;43.77
68654;BME280;55636;51.108;13.622;2023-06-05T00:42:13;100784.00;;;12.48;43.64
68654;BME280;55636;51.108;13.622;2023-06-05T00:43:16;100784.25;;;12.46;43.83
68654;BME280;55636;51.108;13.622;2023-06-05T00:44:18;100790.06;;;12.45;44.00
68654;BME280;55636;51.108;13.622;2023-06-05T00:45:20;100783.13;;;12.42;43.97
68654;BME280;55636;51.108;13.622;2023-06-05T00:46:23;100781.72;;;12.40;44.07
68654;BME280;55636;51.108;13.622;2023-06-05T00:47:26;100783.66;;;12.39;43.91
68654;BME280;55636;51.108;13.622;2023-06-05T00:48:29;100779.47;;;12.37;44.04
68654;BME280;55636;51.108;13.622;2023-06-05T00:49:34;100778.06;;;12.34;44.14
68654;BME280;55636;51.108;13.622;2023-06-05T00:50:36;100779.16;;;12.33;44.05
68654;BME280;55636;51.108;13.622;2023-06-05T00:51:41;100783.03;;;12.32;44.33
68654;BME280;55636;51.108;13.622;2023-06-05T00:52:46;100784.38;;;12.29;44.24
68654;BME280;55636;51.108;13.622;2023-06-05T00:53:49;100779.94;;;12.28;44.44
68654;BME280;55636;51.108;13.622;2023-06-05T00:54:52;100777.44;;;12.27;44.46
68654;BME280;55636;51.108;13.622;2023-06-05T00:55:54;100778.78;;;12.24;44.69
68654;BME280;55636;51.108;13.622;2023-06-05T00:56:57;100778.19;;;12.22;44.64
68654;BME280;55636;51.108;13.622;2023-06-05T00:58:00;100785.69;;;12.22;44.84
68654;BME280;55636;51.108;13.622;2023-06-05T00:59:03;100772.38;;;12.18;44.96
68654;BME280;55636;51.108;13.622;2023-06-05T01:00:06;100776.22;;;12.17;44.96
68654;BME280;55636;51.108;13.622;2023-06-05T01:01:11;100783.94;;;12.15;44.96
68654;BME280;55636;51.108;13.622;2023-06-05T01:02:13;100775.91;;;12.14;45.08
68654;BME280;55636;51.108;13.622;2023-06-05T01:03:16;100784.47;;;12.12;44.88
68654;BME280;55636;51.108;13.622;2023-06-05T01:04:19;100787.25;;;12.12;45.02
68654;BME280;55636;51.108;13.622;2023-06-05T01:05:22;100778.63;;;12.09;45.26
68654;BME280;55636;51.108;13.622;2023-06-05T01:06:25;100778.06;;;12.07;45.22
68654;BME280;55636;51.108;13.622;2023-06-05T01:07:28;100778.31;;;12.05;45.18
68654;BME280;55636;51.108;13.622;2023-06-05T01:08:33;100774.13;;;12.02;45.16
68654;BME280;55636;51.108;13.622;2023-06-05T01:09:42;100773.56;;;12.00;45.17
68654;BME280;55636;51.108;13.622;2023-06-05T01:10:45;100768.28;;;11.99;45.02
68654;BME280;55636;51.108;13.622;2023-06-05T01:12:01;100774.91;;;11.98;45.16
68654;BME280;55636;51.108;13.622;2023-06-05T01:15:20;100777.03;;;11.91;45.35
68654;BME280;55636;51.108;13.622;2023-06-05T01:16:31;100772.84;;;11.88;45.27
68654;BME280;55636;51.108;13.622;2023-06-05T01:17:35;100769.53;;;11.86;45.27
68654;BME280;55636;51.108;13.622;2023-06-05T01:18:39;100775.31;;;11.84;45.36
68654;BME280;55636;51.108;13.622;2023-06-05T01:19:42;100774.47;;;11.84;45.31
68654;BME280;55636;51.108;13.622;2023-06-05T01:20:45;100776.41;;;11.83;45.27
68654;BME280;55636;51.108;13.622;2023-06-05T01:21:47;100772.22;;;11.81;45.48
68654;BME280;55636;51.108;13.622;2023-06-05T01:22:51;100778.03;;;11.79;45.45
68654;BME280;55636;51.108;13.622;2023-06-05T01:23:54;100777.44;;;11.77;45.57
68654;BME280;55636;51.108;13.622;2023-06-05T01:24:57;100770.22;;;11.76;45.75
68654;BME280;55636;51.108;13.622;2023-06-05T01:26:02;100769.66;;;11.74;45.75
68654;BME280;55636;51.108;13.622;2023-06-05T01:27:17;100775.44;;;11.73;45.44
68654;BME280;55636;51.108;13.622;2023-06-05T01:28:28;100770.16;;;11.71;45.73
68654;BME280;55636;51.108;13.622;2023-06-05T01:29:59;100770.44;;;11.69;45.35
68654;BME280;55636;51.108;13.622;2023-06-05T01:31:08;100769.28;;;11.65;45.88
68654;BME280;55636;51.108;13.622;2023-06-05T01:32:23;100773.13;;;11.64;45.75
68654;BME280;55636;51.108;13.622;2023-06-05T01:33:40;100770.91;;;11.61;45.76
68654;BME280;55636;51.108;13.622;2023-06-05T01:34:48;100775.00;;;11.59;45.74
68654;BME280;55636;51.108;13.622;2023-06-05T01:35:52;100768.88;;;11.57;45.95
68654;BME280;55636;51.108;13.622;2023-06-05T01:36:56;100764.69;;;11.54;45.88
68654;BME280;55636;51.108;13.622;2023-06-05T01:38:00;100762.19;;;11.52;46.17
68654;BME280;55636;51.108;13.622;2023-06-05T01:39:05;100761.59;;;11.50;45.89
68654;BME280;55636;51.108;13.622;2023-06-05T01:40:13;100766.31;;;11.50;46.04
68654;BME280;55636;51.108;13.622;2023-06-05T01:41:19;100762.13;;;11.47;46.26
68654;BME280;55636;51.108;13.622;2023-06-05T01:42:23;100764.91;;;11.47;46.47
68654;BME280;55636;51.108;13.622;2023-06-05T01:43:26;100774.53;;;11.45;46.25
68654;BME280;55636;51.108;13.622;2023-06-05T01:44:29;100774.78;;;11.43;46.36
68654;BME280;55636;51.108;13.622;2023-06-05T01:45:32;100763.97;;;11.42;46.29
68654;BME280;55636;51.108;13.622;2023-06-05T01:46:34;100761.47;;;11.40;46.36
68654;BME280;55636;51.108;13.622;2023-06-05T01:47:38;100774.44;;;11.40;46.25
68654;BME280;55636;51.108;13.622;2023-06-05T01:48:42;100760.88;;;11.38;46.47
68654;BME280;55636;51.108;13.622;2023-06-05T01:49:45;100767.50;;;11.37;46.41
68654;BME280;55636;51.108;13.622;2023-06-05T01:50:47;100775.22;;;11.35;46.27
68654;BME280;55636;51.108;13.622;2023-06-05T01:51:50;100768.03;;;11.34;46.49
68654;BME280;55636;51.108;13.622;2023-06-05T01:52:52;100777.41;;;11.33;46.60
68654;BME280;55636;51.108;13.622;2023-06-05T01:53:56;100762.75;;;11.32;46.60
68654;BME280;55636;51.108;13.622;2023-06-05T01:55:03;100776.81;;;11.31;46.57
68654;BME280;55636;51.108;13.622;2023-06-05T01:56:06;100777.94;;;11.30;46.72
68654;BME280;55636;51.108;13.622;2023-06-05T01:57:10;100767.94;;;11.29;46.66
68654;BME280;55636;51.108;13.622;2023-06-05T01:58:14;100769.03;;;11.28;46.66
68654;BME280;55636;51.108;13.622;2023-06-05T01:59:17;100767.34;;;11.27;46.63
68654;BME280;55636;51.108;13.622;2023-06-05T02:00:20;100761.00;;;11.26;46.88
68654;BME280;55636;51.108;13.622;2023-06-05T02:01:22;100771.22;;;11.26;46.77
68654;BME280;55636;51.108;13.622;2023-06-05T02:02:25;100770.63;;;11.24;46.96
68654;BME280;55636;51.108;13.622;2023-06-05T02:03:28;100765.38;;;11.22;46.97
68654;BME280;55636;51.108;13.622;2023-06-05T02:04:31;100763.69;;;11.21;47.06
68654;BME280;55636;51.108;13.622;2023-06-05T02:05:34;100764.78;;;11.20;47.27
68654;BME280;55636;51.108;13.622;2023-06-05T02:06:37;100765.03;;;11.18;47.04
68654;BME280;55636;51.108;13.622;2023-06-05T02:07:49;100771.66;;;11.17;47.27
68654;BME280;55636;51.108;13.622;2023-06-05T02:08:56;100761.69;;;11.16;47.21
68654;BME280;55636;51.108;13.622;2023-06-05T02:09:58;100764.69;;;11.15;47.58
68654;BME280;55636;51.108;13.622;2023-06-05T02:11:03;100762.19;;;11.13;47.87
68654;BME280;55636;51.108;13.622;2023-06-05T02:12:12;100766.91;;;11.13;48.26
68654;BME280;55636;51.108;13.622;2023-06-05T02:13:16;100761.59;;;11.11;48.59
68654;BME280;55636;51.108;13.622;2023-06-05T02:14:20;100756.34;;;11.10;48.75
68654;BME280;55636;51.108;13.622;2023-06-05T02:15:25;100760.78;;;11.11;49.52
68654;BME280;55636;51.108;13.622;2023-06-05T02:16:28;100761.88;;;11.10;nan
68654;BME280;55636;51.108;13.622;2023-06-05T02:17:31;100760.19;;;11.09;50.39
68654;BME280;55636;51.108;13.622;2023-06-05T02:18:33;100759.34;;;11.08;50.65
68654;BME280;55636;51.108;13.622;2023-06-05T02:19:39;100760.44;;;11.07;51.10
68654;BME280;55636;51.108;13.622;2023-06-05T02:20:42;100756.00;;;11.06;51.01
68654;BME280;55636;51.108;13.622;2023-06-05T02:21:44;100757.94;;;11.06;51.12
68654;BME280;55636;51.108;13.622;2023-06-05T02:22:47;100756.25;;;11.05;51.01
68654;BME280;55636;51.108;13.622;2023-06-05T02:23:54;100751.81;;;11.03;51.04
68654;BME280;55636;51.108;13.622;2023-06-05T02:24:56;100754.56;;;11.03;51.37
68654;BME280;55636;51.108;13.622;2023-06-05T02:25:59;100748.47;;;11.01;51.44
68654;BME280;55636;51.108;13.622;2023-06-05T02:27:01;100756.78;;;11.01;51.63
68654;BME280;55636;51.108;13.622;2023-06-05T02:28:04;100753.19;;;11.01;51.85
68654;BME280;55636;51.108;13.622;2023-06-05T02:29:06;100744.91;;;11.01;51.50
68654;BME280;55636;51.108;13.622;2023-06-05T02:30:09;100750.41;;;11.01;51.67
68654;BME280;55636;51.108;13.622;2023-06-05T02:31:11;100743.22;;;11.00;51.58
68654;BME280;55636;51.108;13.622;2023-06-05T02:32:18;100748.75;;;11.00;51.52
68654;BME280;55636;51.108;13.622;2023-06-05T02:33:21;100751.50;;;11.00;51.45
68654;BME280;55636;51.108;13.622;2023-06-05T02:34:26;100751.50;;;11.00;51.61
68654;BME280;55636;51.108;13.622;2023-06-05T02:35:28;100751.78;;;10.98;51.56
68654;BME280;55636;51.108;13.622;2023-06-05T02:36:32;100752.84;;;10.97;51.47
68654;BME280;55636;51.108;13.622;2023-06-05T02:37:36;100757.28;;;10.98;51.17
68654;BME280;55636;51.108;13.622;2023-06-05T02:38:46;100751.78;;;10.98;51.13
68654;BME280;55636;51.108;13.622;2023-06-05T02:39:52;100754.53;;;10.98;50.77
68654;BME280;55636;51.108;13.622;2023-06-05T02:40:54;100746.47;;;10.97;50.69
68654;BME280;55636;51.108;13.622;2023-06-05T02:41:57;100748.41;;;10.96;50.45
68654;BME280;55636;51.108;13.622;2023-06-05T02:42:59;100743.97;;;10.95;50.58
68654;BME280;55636;51.108;13.622;2023-06-05T02:44:02;100754.19;;;10.95;50.48
68654;BME280;55636;51.108;13.622;2023-06-05T02:45:05;100761.41;;;10.96;50.39
68654;BME280;55636;51.108;13.622;2023-06-05T02:46:08;100750.34;;;10.96;50.53
68654;BME280;55636;51.108;13.622;2023-06-05T02:47:11;100755.00;;;10.95;50.50
68654;BME280;55636;51.108;13.622;2023-06-05T02:48:14;100758.88;;;10.94;50.63
68654;BME280;55636;51.108;13.622;2023-06-05T02:49:16;100756.09;;;10.94;50.72
68654;BME280;55636;51.108;13.622;2023-06-05T02:50:19;100754.44;;;10.93;50.73
68654;BME280;55636;51.108;13.622;2023-06-05T02:51:25;100756.34;;;10.93;50.95
68654;BME280;55636;51.108;13.622;2023-06-05T02:52:28;100755.53;;;10.92;50.51
68654;BME280;55636;51.108;13.622;2023-06-05T02:53:30;100757.44;;;10.92;50.68
68654;BME280;55636;51.108;13.622;2023-06-05T02:54:32;100753.03;;;10.91;50.70
68654;BME280;55636;51.108;13.622;2023-06-05T02:55:38;100757.69;;;10.90;50.64
68654;BME280;55636;51.108;13.622;2023-06-05T02:56:47;100757.97;;;10.89;50.58
68654;BME280;55636;51.108;13.622;2023-06-05T02:57:49;100753.53;;;10.88;50.52
68654;BME280;55636;51.108;13.622;2023-06-05T02:58:59;100759.31;;;10.86;50.70
68654;BME280;55636;51.108;13.622;2023-06-05T03:00:11;100762.06;;;10.86;50.62
68654;BME280;55636;51.108;13.622;2023-06-05T03:01:17;100755.72;;;10.85;50.46
68654;BME280;55636;51.108;13.622;2023-06-05T03:02:21;100756.81;;;10.84;50.20
68654;BME280;55636;51.108;13.622;2023-06-05T03:03:24;100752.34;;;10.83;50.33
68654;BME280;55636;51.108;13.622;2023-06-05T03:04:31;100756.19;;;10.82;50.29
68654;BME280;55636;51.108;13.622;2023-06-05T03:05:37;100760.03;;;10.81;50.39
68654;BME280;55636;51.108;13.622;2023-06-05T03:06:44;100761.16;;;10.80;50.32
68654;BME280;55636;51.108;13.622;2023-06-05T03:07:49;100758.66;;;10.79;50.51
68654;BME280;55636;51.108;13.622;2023-06-05T03:08:51;100759.47;;;10.79;50.78
68654;BME280;55636;51.108;13.622;2023-06-05T03:09:58;100755.91;;;10.79;51.23
68654;BME280;55636;51.108;13.622;2023-06-05T03:11:01;100768.03;;;10.78;51.35
68654;BME280;55636;51.108;13.622;2023-06-05T03:12:04;100772.69;;;10.77;51.57
68654;BME280;55636;51.108;13.622;2023-06-05T03:13:06;100761.66;;;10.77;51.64
68654;BME280;55636;51.108;13.622;2023-06-05T03:14:11;100768.03;;;10.78;51.74
68654;BME280;55636;51.108;13.622;2023-06-05T03:15:14;100760.00;;;10.76;51.83
68654;BME280;55636;51.108;13.622;2023-06-05T03:16:19;100761.09;;;10.75;51.92
68654;BME280;55636;51.108;13.622;2023-06-05T03:17:25;100759.13;;;10.76;51.94
68654;BME280;55636;51.108;13.622;2023-06-05T03:18:30;100763.00;;;10.75;52.04
68654;BME280;55636;51.108;13.622;2023-06-05T03:19:34;100761.91;;;10.76;52.18
68654;BME280;55636;51.108;13.622;2023-06-05T03:20:37;100758.31;;;10.75;51.93
68654;BME280;55636;51.108;13.622;2023-06-05T03:21:41;100761.09;;;10.75;52.09
68654;BME280;55636;51.108;13.622;2023-06-05T03:22:46;100756.63;;;10.74;51.96
68654;BME280;55636;51.108;13.622;2023-06-05T03:23:49;100755.56;;;10.75;51.99
68654;BME280;55636;51.108;13.622;2023-06-05T03:24:52;100764.94;;;10.74;52.08
68654;BME280;55636;51.108;13.622;2023-06-05T03:25:55;100753.88;;;10.74;52.18
68654;BME280;55636;51.108;13.622;2023-06-05T03:26:59;100761.09;;;10.75;52.03
68654;BME280;55636;51.108;13.622;2023-06-05T03:28:03;100757.47;;;10.75;52.09
68654;BME280;55636;51.108;13.622;2023-06-05T03:29:05;100759.13;;;10.76;52.12
68654;BME280;55636;51.108;13.622;2023-06-05T03:30:08;100754.47;;;10.76;52.30
68654;BME280;55636;51.108;13.622;2023-06-05T03:31:17;100759.75;;;10.78;51.97
68654;BME280;55636;51.108;13.622;2023-06-05T03:32:21;100762.25;;;10.79;52.04
68654;BME280;55636;51.108;13.622;2023-06-05T03:33:24;100761.16;;;10.80;51.97
68654;BME280;55636;51.108;13.622;2023-06-05T03:34:26;100750.69;;;10.82;51.96
68654;BME280;55636;51.108;13.622;2023-06-05T03:35:32;100756.81;;;10.84;51.95
68654;BME280;55636;51.108;13.622;2023-06-05T03:36:39;100751.00;;;10.86;51.90
68654;BME280;55636;51.108;13.622;2023-06-05T03:37:44;100760.72;;;10.89;51.81
68654;BME280;55636;51.108;13.622;2023-06-05T03:38:47;100760.47;;;10.90;51.70
68654;BME280;55636;51.108;13.622;2023-06-05T03:39:49;100757.22;;;10.93;51.69
68654;BME280;55636;51.108;13.622;2023-06-05T03:40:52;100752.25;;;10.95;51.72
68654;BME280;55636;51.108;13.622;2023-06-05T03:41:55;100749.81;;;10.99;51.45
68654;BME280;55636;51.108;13.622;2023-06-05T03:43:01;100757.84;;;11.00;51.43
68654;BME280;55636;51.108;13.622;2023-06-05T03:44:06;100755.69;;;11.02;51.44
68654;BME280;55636;51.108;13.622;2023-06-05T03:45:11;100757.13;;;11.05;51.33
68654;BME280;55636;51.108;13.622;2023-06-05T03:46:16;100760.44;;;11.07;51.25
68654;BME280;55636;51.108;13.622;2023-06-05T03:47:22;100758.28;;;11.09;51.42
68654;BME280;55636;51.108;13.622;2023-06-05T03:48:25;100759.69;;;11.12;51.21
68654;BME280;55636;51.108;13.622;2023-06-05T03:49:29;100762.19;;;11.13;51.18
68654;BME280;55636;51.108;13.622;2023-06-05T03:50:31;100760.84;;;11.16;51.31
68654;BME280;55636;51.108;13.622;2023-06-05T03:51:36;100763.34;;;11.17;51.24
68654;BME280;55636;51.108;13.622;2023-06-05T03:52:38;100761.19;;;11.19;51.04
68654;BME280;55636;51.108;13.622;2023-06-05T03:53:42;100758.75;;;11.23;50.97
68654;BME280;55636;51.108;13.622;2023-06-05T03:54:45;100759.56;;;11.24;50.95
68654;BME280;55636;51.108;13.622;2023-06-05T03:55:49;100759.31;;;11.25;51.16
68654;BME280;55636;51.108;13.622;2023-06-05T03:56:59;100759.66;;;11.29;51.16
68654;BME280;55636;51.108;13.622;2023-06-05T03:58:02;100759.97;;;11.32;50.93
68654;BME280;55636;51.108;13.622;2023-06-05T03:59:05;100750.34;;;11.35;50.87
68654;BME280;55636;51.108;13.622;2023-06-05T04:00:25;100752.06;;;11.41;50.72
68654;BME280;55636;51.108;13.622;2023-06-05T04:01:32;100756.03;;;11.45;50.61
68654;BME280;55636;51.108;13.622;2023-06-05T04:02:36;100754.44;;;11.49;50.40
68654;BME280;55636;51.108;13.622;2023-06-05T04:03:39;100754.50;;;11.55;50.28
68654;BME280;55636;51.108;13.622;2023-06-05T04:04:42;100758.16;;;11.60;50.27
68654;BME280;55636;51.108;13.622;2023-06-05T04:05:45;100755.44;;;11.65;50.17
68654;BME280;55636;51.108;13.622;2023-06-05T04:06:47;100756.31;;;11.71;49.96
68654;BME280;55636;51.108;13.622;2023-06-05T04:07:50;100756.13;;;11.78;50.17
68654;BME280;55636;51.108;13.622;2023-06-05T04:08:52;100760.91;;;11.82;49.68
68654;BME280;55636;51.108;13.622;2023-06-05T04:09:55;100760.69;;;11.89;49.82
68654;BME280;55636;51.108;13.622;2023-06-05T04:10:57;100765.75;;;11.97;49.75
68654;BME280;55636;51.108;13.622;2023-06-05T04:12:00;100761.69;;;12.05;49.48
68654;BME280;55636;51.108;13.622;2023-06-05T04:13:05;100765.09;;;12.12;49.25
68654;BME280;55636;51.108;13.622;2023-06-05T04:14:10;100765.72;;;12.19;49.44
68654;BME280;55636;51.108;13.622;2023-06-05T04:15:14;100758.63;;;12.29;49.17
68654;BME280;55636;51.108;13.622;2023-06-05T04:16:17;100758.41;;;12.35;48.96
68654;BME280;55636;51.108;13.622;2023-06-05T04:17:20;100765.97;;;12.45;48.74
68654;BME280;55636;51.108;13.622;2023-06-05T04:18:23;100764.63;;;12.53;48.52
68654;BME280;55636;51.108;13.622;2023-06-05T04:19:27;100764.22;;;12.61;48.24
68654;BME280;55636;51.108;13.622;2023-06-05T04:20:31;100771.75;;;12.71;47.92
68654;BME280;55636;51.108;13.622;2023-06-05T04:21:34;100763.53;;;12.81;47.77
68654;BME280;55636;51.108;13.622;2023-06-05T04:22:41;100763.88;;;12.90;47.75
68654;BME280;55636;51.108;13.622;2023-06-05T04:23:44;100758.63;;;12.99;47.75
68654;BME280;55636;51.108;13.622;2023-06-05T04:24:47;100756.22;;;13.08;47.54
68654;BME280;55636;51.108;13.622;2023-06-05T04:25:50;100766.53;;;13.17;47.32
68654;BME280;55636;51.108;13.622;2023-06-05T04:26:55;100760.47;;;13.26;46.97
68654;BME280;55636;51.108;13.622;2023-06-05T04:27:58;100766.34;;;13.34;46.92
68654;BME280;55636;51.108;13.622;2023-06-05T04:29:02;100762.25;;;13.42;46.66
68654;BME280;55636;51.108;13.622;2023-06-05T04:30:06;100758.94;;;13.50;46.31
68654;BME280;55636;51.108;13.622;2023-06-05T04:31:09;100764.50;;;13.56;46.02
68654;BME280;55636;51.108;13.622;2023-06-05T04:32:14;100760.66;;;13.62;45.87
68654;BME280;55636;51.108;13.622;2023-06-05T04:33:19;100754.84;;;13.69;45.70
68654;BME280;55636;51.108;13.622;2023-06-05T04:34:21;100759.06;;;13.76;45.63
68654;BME280;55636;51.108;13.622;2023-06-05T04:35:24;100751.88;;;13.80;45.45
68654;BME280;55636;51.108;13.622;2023-06-05T04:36:27;100761.03;;;13.86;45.42
68654;BME280;55636;51.108;13.622;2023-06-05T04:37:31;100755.78;;;13.90;45.45
68654;BME280;55636;51.108;13.622;2023-06-05T04:38:33;100756.59;;;13.95;45.31
68654;BME280;55636;51.108;13.622;2023-06-05T04:39:36;100758.84;;;13.98;45.08
68654;BME280;55636;51.108;13.622;2023-06-05T04:40:38;100756.34;;;14.02;44.94
68654;BME280;55636;51.108;13.622;2023-06-05T04:41:41;100758.59;;;14.05;44.53
68654;BME280;55636;51.108;13.622;2023-06-05T04:42:51;100758.03;;;14.08;44.37
68654;BME280;55636;51.108;13.622;2023-06-05T04:43:59;100762.50;;;14.09;44.24
68654;BME280;55636;51.108;13.622;2023-06-05T04:45:07;100765.56;;;14.13;43.92
68654;BME280;55636;51.108;13.622;2023-06-05T04:46:16;100765.00;;;14.16;43.55
68654;BME280;55636;51.108;13.622;2023-06-05T04:47:18;100762.78;;;14.18;43.80
68654;BME280;55636;51.108;13.622;2023-06-05T04:48:21;100759.72;;;14.20;43.56
68654;BME280;55636;51.108;13.622;2023-06-05T04:49:23;100761.41;;;14.21;43.26
68654;BME280;55636;51.108;13.622;2023-06-05T04:50:27;100757.53;;;14.22;43.33
68654;BME280;55636;51.108;13.622;2023-06-05T04:51:44;100763.63;;;14.24;43.17
68654;BME280;55636;51.108;13.622;2023-06-05T04:52:48;100760.56;;;14.25;43.29
68654;BME280;55636;51.108;13.622;2023-06-05T04:53:52;100761.41;;;14.26;42.93
68654;BME280;55636;51.108;13.622;2023-06-05T04:54:58;100758.63;;;14.26;43.17
68654;BME280;55636;51.108;13.622;2023-06-05T04:56:05;100762.25;;;14.26;42.97
68654;BME280;55636;51.108;13.622;2023-06-05T04:57:10;100765.59;;;14.28;42.76
68654;BME280;55636;51.108;13.622;2023-06-05T04:58:13;100760.84;;;14.29;43.04
68654;BME280;55636;51.108;13.622;2023-06-05T04:59:16;100757.25;;;14.28;42.84
68654;BME280;55636;51.108;13.622;2023-06-05T05:00:19;100756.13;;;14.29;42.73
68654;BME280;55636;51.108;13.622;2023-06-05T05:01:22;100756.13;;;14.29;42.63
68654;BME280;55636;51.108;13.622;2023-06-05T05:02:26;100754.19;;;14.30;42.67
68654;BME280;55636;51.108;13.622;2023-06-05T05:03:29;100754.19;;;14.30;42.81
68654;BME280;55636;51.108;13.622;2023-06-05T05:04:32;100754.19;;;14.30;42.51
68654;BME280;55636;51.108;13.622;2023-06-05T05:05:36;100758.66;;;14.31;42.33
68654;BME280;55636;51.108;13.622;2023-06-05T05:06:39;100762.25;;;14.31;42.23
68654;BME280;55636;51.108;13.622;2023-06-05T05:07:43;100765.59;;;14.33;42.55
68654;BME280;55636;51.108;13.622;2023-06-05T05:08:47;100764.22;;;14.36;42.31
68654;BME280;55636;51.108;13.622;2023-06-05T05:09:53;100763.94;;;14.38;42.57
68654;BME280;55636;51.108;13.622;2023-06-05T05:10:55;100765.84;;;14.42;42.71
68654;BME280;55636;51.108;13.622;2023-06-05T05:11:58;100764.22;;;14.46;42.92
68654;BME280;55636;51.108;13.622;2023-06-05T05:13:01;100767.53;;;14.48;42.64
68654;BME280;55636;51.108;13.622;2023-06-05T05:14:05;100760.88;;;14.55;42.52
68654;BME280;55636;51.108;13.622;2023-06-05T05:15:07;100760.88;;;14.60;42.55
68654;BME280;55636;51.108;13.622;2023-06-05T05:16:10;100773.69;;;14.66;42.66
68654;BME280;55636;51.108;13.622;2023-06-05T05:17:15;100773.94;;;14.70;42.14
68654;BME280;55636;51.108;13.622;2023-06-05T05:18:21;100772.53;;;14.72;42.19
68654;BME280;55636;51.108;13.622;2023-06-05T05:19:24;100767.88;;;14.78;41.94
68654;BME280;55636;51.108;13.622;2023-06-05T05:20:26;100771.19;;;14.80;41.82
68654;BME280;55636;51.108;13.622;2023-06-05T05:21:29;100769.78;;;14.82;41.96
68654;BME280;55636;51.108;13.622;2023-06-05T05:22:32;100765.63;;;14.85;41.65
68654;BME280;55636;51.108;13.622;2023-06-05T05:23:34;100771.16;;;14.90;41.51
68654;BME280;55636;51.108;13.622;2023-06-05T05:24:37;100768.38;;;14.90;41.75
68654;BME280;55636;51.108;13.622;2023-06-05T05:25:39;100776.19;;;14.93;41.54
68654;BME280;55636;51.108;13.622;2023-06-05T05:26:42;100771.16;;;14.95;41.47
68654;BME280;55636;51.108;13.622;2023-06-05T05:27:44;100769.78;;;14.98;41.33
68654;BME280;55636;51.108;13.622;2023-06-05T05:28:47;100768.38;;;15.01;41.35
68654;BME280;55636;51.108;13.622;2023-06-05T05:29:49;100773.38;;;15.04;41.56
68654;BME280;55636;51.108;13.622;2023-06-05T05:30:52;100773.66;;;15.07;41.56
68654;BME280;55636;51.108;13.622;2023-06-05T05:31:54;100771.97;;;15.11;41.84
68654;BME280;55636;51.108;13.622;2023-06-05T05:32:58;100770.31;;;15.15;41.48